createdAt,value
2022-09-20T00:01:21.731Z,16.56
2022-09-20T00:03:51.656Z,16.53
2022-09-20T00:06:21.602Z,16.53
2022-09-20T00:08:49.837Z,16.33
2022-09-20T00:11:22.750Z,16.40
2022-09-20T00:13:53.257Z,16.32
2022-09-20T00:16:23.284Z,16.47
2022-09-20T00:18:52.834Z,16.34
2022-09-20T00:21:22.360Z,16.30
2022-09-20T00:23:51.779Z,16.37
2022-09-20T00:26:20.463Z,16.21
2022-09-20T00:28:48.801Z,16.36
2022-09-20T00:31:17.638Z,16.33
2022-09-20T00:34:04.853Z,16.37
2022-09-20T00:36:33.223Z,16.04
2022-09-20T00:39:02.525Z,15.86
2022-09-20T00:41:31.714Z,16.16
2022-09-20T00:44:00.618Z,16.32
2022-09-20T00:46:28.873Z,16.33
2022-09-20T00:49:01.665Z,16.28
2022-09-20T00:51:33.660Z,16.13
2022-09-20T00:54:04.347Z,16.22
2022-09-20T00:56:38.371Z,16.20
2022-09-20T00:59:26.900Z,16.09
2022-09-20T01:02:05.427Z,16.08
2022-09-20T01:04:35.029Z,16.03
2022-09-20T01:07:05.019Z,15.86
2022-09-20T01:09:33.411Z,15.98
2022-09-20T01:12:05.008Z,15.96
2022-09-20T01:14:33.903Z,15.89
2022-09-20T01:17:04.147Z,15.62
2022-09-20T01:19:35.748Z,15.88
2022-09-20T01:22:07.061Z,15.68
2022-09-20T01:24:53.450Z,15.86
2022-09-20T01:27:34.094Z,15.81
2022-09-20T01:30:07.682Z,15.73
2022-09-20T01:32:44.222Z,15.71
2022-09-20T01:35:14.251Z,15.75
2022-09-20T01:37:53.363Z,15.73
2022-09-20T01:40:31.031Z,15.70
2022-09-20T01:43:08.399Z,15.52
2022-09-20T01:45:41.452Z,15.76
2022-09-20T01:48:18.998Z,15.80
2022-09-20T01:51:02.701Z,15.72
2022-09-20T01:53:50.111Z,15.67
2022-09-20T01:56:36.849Z,15.55
2022-09-20T01:59:25.017Z,15.61
2022-09-20T02:01:53.562Z,15.62
2022-09-20T02:04:24.755Z,15.13
2022-09-20T02:07:07.547Z,15.53
2022-09-20T02:09:56.989Z,15.57
2022-09-20T02:12:28.535Z,15.74
2022-09-20T02:15:25.348Z,15.60
2022-09-20T02:18:12.362Z,15.75
2022-09-20T02:21:13.329Z,15.54
2022-09-20T02:23:53.638Z,15.80
2022-09-20T02:26:38.001Z,15.83
2022-09-20T02:29:25.156Z,15.82
2022-09-20T02:32:00.621Z,15.68
2022-09-20T02:34:31.981Z,15.80
2022-09-20T02:37:25.478Z,15.77
2022-09-20T02:39:53.859Z,15.81
2022-09-20T02:42:30.859Z,15.92
2022-09-20T02:45:04.087Z,15.66
2022-09-20T02:47:35.512Z,15.76
2022-09-20T02:50:22.611Z,15.88
2022-09-20T02:53:00.668Z,15.73
2022-09-20T02:55:53.651Z,15.84
2022-09-20T02:58:28.115Z,15.79
2022-09-20T03:01:13.137Z,15.80
2022-09-20T03:03:56.756Z,15.86
2022-09-20T03:06:49.465Z,15.92
2022-09-20T03:09:36.456Z,15.94
2022-09-20T03:12:34.229Z,15.93
2022-09-20T03:15:08.263Z,15.94
2022-09-20T03:17:52.684Z,15.92
2022-09-20T03:20:28.253Z,16.06
2022-09-20T03:22:56.539Z,16.17
2022-09-20T03:25:24.797Z,16.28
2022-09-20T03:28:10.775Z,15.90
2022-09-20T03:30:44.209Z,15.96
2022-09-20T03:33:12.566Z,15.94
2022-09-20T03:35:40.772Z,15.93
2022-09-20T03:38:12.137Z,16.06
2022-09-20T03:40:52.801Z,16.08
2022-09-20T03:43:29.927Z,16.09
2022-09-20T03:46:21.371Z,16.06
2022-09-20T03:48:52.799Z,16.04
2022-09-20T03:51:22.560Z,15.92
2022-09-20T03:53:57.043Z,16.02
2022-09-20T03:56:39.473Z,15.99
2022-09-20T03:59:17.180Z,15.82
2022-09-20T04:01:56.878Z,15.90
2022-09-20T04:04:33.091Z,15.97
2022-09-20T04:07:01.382Z,15.87
2022-09-20T04:09:42.071Z,15.88
2022-09-20T04:12:28.184Z,15.46
2022-09-20T04:15:05.915Z,15.61
2022-09-20T04:17:34.229Z,15.78
2022-09-20T04:20:05.795Z,15.92
2022-09-20T04:22:34.895Z,15.97
2022-09-20T04:25:27.664Z,16.01
2022-09-20T04:28:09.373Z,16.11
2022-09-20T04:30:43.929Z,15.97
2022-09-20T04:33:20.665Z,16.15
2022-09-20T04:36:17.084Z,16.15
2022-09-20T04:38:48.575Z,16.30
2022-09-20T04:41:21.916Z,16.51
2022-09-20T04:43:53.674Z,16.33
2022-09-20T04:46:22.135Z,16.12
2022-09-20T04:49:10.201Z,16.21
2022-09-20T04:51:41.556Z,16.33
2022-09-20T04:54:28.799Z,16.42
2022-09-20T04:57:10.453Z,16.37
2022-09-20T05:00:02.409Z,16.35
2022-09-20T05:02:50.421Z,16.23
2022-09-20T05:05:18.781Z,15.95
2022-09-20T05:08:06.638Z,15.90
2022-09-20T05:10:35.494Z,16.17
2022-09-20T05:13:05.338Z,16.03
2022-09-20T05:15:36.259Z,16.22
2022-09-20T05:18:10.825Z,16.24
2022-09-20T05:20:48.480Z,16.19
2022-09-20T05:23:25.522Z,16.06
2022-09-20T05:26:11.451Z,16.08
2022-09-20T05:28:45.897Z,16.10
2022-09-20T05:31:28.228Z,15.70
2022-09-20T05:33:56.645Z,15.72
2022-09-20T05:36:43.908Z,15.86
2022-09-20T05:39:15.380Z,15.91
2022-09-20T05:41:47.831Z,15.80
2022-09-20T05:44:27.462Z,15.92
2022-09-20T05:47:00.098Z,15.74
2022-09-20T05:49:50.249Z,15.74
2022-09-20T05:52:18.720Z,15.98
2022-09-20T05:55:11.527Z,15.99
2022-09-20T05:57:45.619Z,15.99
2022-09-20T06:00:22.283Z,16.12
2022-09-20T06:03:00.105Z,16.18
2022-09-20T06:05:28.791Z,16.34
2022-09-20T06:08:15.995Z,16.24
2022-09-20T06:11:03.393Z,16.26
2022-09-20T06:13:45.316Z,16.23
2022-09-20T06:16:23.709Z,16.36
2022-09-20T06:19:01.915Z,16.42
2022-09-20T06:21:54.254Z,16.09
2022-09-20T06:24:23.021Z,16.33
2022-09-20T06:26:54.517Z,16.45
2022-09-20T06:29:29.272Z,16.48
2022-09-20T06:31:57.842Z,16.51
2022-09-20T06:34:27.798Z,16.34
2022-09-20T06:37:25.066Z,16.23
2022-09-20T06:40:32.090Z,16.16
2022-09-20T06:43:00.722Z,16.35
2022-09-20T06:45:29.556Z,15.81
2022-09-20T06:48:01.977Z,16.17
2022-09-20T06:50:30.900Z,16.19
2022-09-20T06:52:59.182Z,15.77
2022-09-20T06:55:30.662Z,15.70
2022-09-20T06:58:00.979Z,15.45
2022-09-20T07:00:30.243Z,15.83
2022-09-20T07:02:58.535Z,15.63
2022-09-20T07:05:26.872Z,15.52
2022-09-20T07:07:58.930Z,15.57
2022-09-20T07:10:30.428Z,15.45
2022-09-20T07:13:00.405Z,15.70
2022-09-20T07:15:30.588Z,15.83
2022-09-20T07:18:00.157Z,16.25
2022-09-20T07:20:28.938Z,16.53
2022-09-20T07:22:57.346Z,16.62
2022-09-20T07:25:27.450Z,16.60
2022-09-20T07:27:56.079Z,16.44
2022-09-20T07:30:26.459Z,16.60
2022-09-20T07:32:54.902Z,16.88
2022-09-20T07:35:23.466Z,17.10
2022-09-20T07:37:56.463Z,16.97
2022-09-20T07:40:25.641Z,16.79
2022-09-20T07:42:56.384Z,16.86
2022-09-20T07:45:25.219Z,16.98
2022-09-20T07:47:54.567Z,16.85
2022-09-20T07:50:22.851Z,16.84
2022-09-20T07:52:51.191Z,17.09
2022-09-20T07:55:20.469Z,17.10
2022-09-20T07:57:48.770Z,17.16
2022-09-20T08:00:17.705Z,17.13
2022-09-20T08:02:46.061Z,17.03
2022-09-20T08:05:14.468Z,17.05
2022-09-20T08:07:42.901Z,17.18
2022-09-20T08:10:11.196Z,17.48
2022-09-20T08:15:29.228Z,17.58
2022-09-20T08:17:57.562Z,17.40
2022-09-20T08:20:26.820Z,17.03
2022-09-20T08:23:19.403Z,16.83
2022-09-20T08:25:44.100Z,16.92
2022-09-20T08:28:12.407Z,17.41
2022-09-20T08:30:40.717Z,17.72
2022-09-20T08:33:09.165Z,17.78
2022-09-20T08:35:38.637Z,18.08
2022-09-20T08:41:18.201Z,18.32
2022-09-20T08:43:51.968Z,17.76
2022-09-20T08:46:23.333Z,17.85
2022-09-20T08:48:52.514Z,17.97
2022-09-20T08:51:23.150Z,18.09
2022-09-20T08:53:53.099Z,18.22
2022-09-20T08:56:22.747Z,18.30
2022-09-20T08:58:51.232Z,18.15
2022-09-20T09:01:24.589Z,18.68
2022-09-20T09:03:57.440Z,18.31
2022-09-20T09:06:25.763Z,18.27
2022-09-20T09:08:57.196Z,18.73
2022-09-20T09:11:25.800Z,18.98
2022-09-20T09:13:57.266Z,19.28
2022-09-20T09:16:33.675Z,19.33
2022-09-20T09:19:22.439Z,19.12
2022-09-20T09:21:50.825Z,19.36
2022-09-20T09:24:20.499Z,19.53
2022-09-20T09:26:48.842Z,19.63
2022-09-20T09:29:22.593Z,19.62
2022-09-20T09:31:52.374Z,19.59
2022-09-20T09:34:31.533Z,18.90
2022-09-20T09:36:59.884Z,19.29
2022-09-20T09:39:30.025Z,19.67
2022-09-20T09:42:01.064Z,19.53
2022-09-20T09:44:32.653Z,19.40
2022-09-20T09:47:01.414Z,19.08
2022-09-20T09:49:34.044Z,19.49
2022-09-20T09:52:08.648Z,19.13
2022-09-20T09:54:47.516Z,18.76
2022-09-20T09:57:26.732Z,19.33
2022-09-20T09:59:55.161Z,18.94
2022-09-20T10:02:23.616Z,18.91
2022-09-20T10:04:56.166Z,18.71
2022-09-20T10:07:39.964Z,18.75
2022-09-20T10:10:26.738Z,18.41
2022-09-20T10:13:13.183Z,18.47
2022-09-20T10:15:51.012Z,18.53
2022-09-20T10:18:30.603Z,17.44
2022-09-20T10:21:06.609Z,17.96
2022-09-20T10:24:01.966Z,18.27
2022-09-20T10:26:35.714Z,18.45
2022-09-20T10:29:12.407Z,18.48
2022-09-20T10:31:52.788Z,17.37
2022-09-20T10:34:35.392Z,17.47
2022-09-20T10:37:10.520Z,17.53
2022-09-20T10:39:41.052Z,18.03
2022-09-20T10:42:47.183Z,17.88
2022-09-20T10:45:43.977Z,17.64
2022-09-20T10:48:28.281Z,17.91
2022-09-20T10:51:15.592Z,18.17
2022-09-20T10:53:49.953Z,18.43
2022-09-20T10:56:18.278Z,18.42
2022-09-20T10:59:05.410Z,18.44
2022-09-20T11:01:33.813Z,18.58
2022-09-20T11:04:17.598Z,18.84
2022-09-20T11:07:06.195Z,18.46
2022-09-20T11:09:38.207Z,18.83
2022-09-20T11:12:15.428Z,18.85
2022-09-20T11:14:50.444Z,18.55
2022-09-20T11:17:22.571Z,18.64
2022-09-20T11:19:50.888Z,18.58
2022-09-20T11:22:31.762Z,19.11
2022-09-20T11:25:03.240Z,18.85
2022-09-20T11:27:37.166Z,18.59
2022-09-20T11:30:10.490Z,18.90
2022-09-20T11:32:44.773Z,18.65
2022-09-20T11:35:16.139Z,19.02
2022-09-20T11:37:52.815Z,19.24
2022-09-20T11:40:36.929Z,19.38
2022-09-20T11:43:08.347Z,19.73
2022-09-20T11:45:38.995Z,19.94
2022-09-20T11:48:18.354Z,19.86
2022-09-20T11:50:49.954Z,19.71
2022-09-20T11:53:21.183Z,19.59
2022-09-20T11:55:59.197Z,19.25
2022-09-20T11:58:28.074Z,18.67
2022-09-20T12:00:58.519Z,18.69
2022-09-20T12:03:38.220Z,18.78
2022-09-20T12:06:24.341Z,18.42
2022-09-20T12:08:52.897Z,18.54
2022-09-20T12:11:29.831Z,17.69
2022-09-20T12:14:04.015Z,18.42
2022-09-20T12:16:35.493Z,18.78
2022-09-20T12:19:07.870Z,18.26
2022-09-20T12:21:55.427Z,18.13
2022-09-20T12:24:24.567Z,18.73
2022-09-20T12:26:56.224Z,18.28
2022-09-20T12:29:24.655Z,17.89
2022-09-20T12:31:54.757Z,18.04
2022-09-20T12:34:26.187Z,18.97
2022-09-20T12:37:00.032Z,18.93
2022-09-20T12:39:35.877Z,18.48
2022-09-20T12:42:10.755Z,18.76
2022-09-20T12:44:45.523Z,18.44
2022-09-20T12:47:13.894Z,18.72
2022-09-20T12:50:04.042Z,19.12
2022-09-20T12:52:50.824Z,18.51
2022-09-20T12:55:31.504Z,18.89
2022-09-20T12:58:02.960Z,19.16
2022-09-20T13:00:38.079Z,19.09
2022-09-20T13:03:28.464Z,18.75
2022-09-20T13:06:06.185Z,19.27
2022-09-20T13:08:53.509Z,19.40
2022-09-20T13:11:28.422Z,18.60
2022-09-20T13:14:06.517Z,19.13
2022-09-20T13:16:53.731Z,19.48
2022-09-20T13:19:29.356Z,19.32
2022-09-20T13:22:00.858Z,19.11
2022-09-20T13:24:35.736Z,19.51
2022-09-20T13:27:11.408Z,19.51
2022-09-20T13:29:42.387Z,19.49
2022-09-20T13:32:26.158Z,18.98
2022-09-20T13:35:07.006Z,18.36
2022-09-20T13:37:47.183Z,18.90
2022-09-20T13:40:23.510Z,18.20
2022-09-20T13:43:12.937Z,18.64
2022-09-20T13:45:42.330Z,18.10
2022-09-20T13:48:10.739Z,18.59
2022-09-20T13:50:44.891Z,18.92
2022-09-20T13:53:28.099Z,18.93
2022-09-20T13:56:09.839Z,18.64
2022-09-20T13:58:38.324Z,18.62
2022-09-20T14:01:20.046Z,18.16
2022-09-20T14:03:48.487Z,18.10
2022-09-20T14:06:16.927Z,18.46
2022-09-20T14:08:48.439Z,19.16
2022-09-20T14:11:24.292Z,18.60
2022-09-20T14:13:54.329Z,18.98
2022-09-20T14:16:24.444Z,19.75
2022-09-20T14:18:53.260Z,19.59
2022-09-20T14:21:23.696Z,19.85
2022-09-20T14:23:58.176Z,18.90
2022-09-20T14:26:28.861Z,18.95
2022-09-20T14:29:18.201Z,19.05
2022-09-20T14:31:47.367Z,19.84
2022-09-20T14:34:15.744Z,19.86
2022-09-20T14:36:44.180Z,20.06
2022-09-20T14:39:15.344Z,20.14
2022-09-20T14:41:44.614Z,20.26
2022-09-20T14:44:32.044Z,19.73
2022-09-20T14:47:12.969Z,19.04
2022-09-20T14:49:43.913Z,19.31
2022-09-20T14:52:27.574Z,19.02
2022-09-20T14:55:03.745Z,18.98
2022-09-20T14:57:32.353Z,19.02
2022-09-20T15:00:05.267Z,19.01
2022-09-20T15:02:35.827Z,19.35
2022-09-20T15:05:04.307Z,19.52
2022-09-20T15:07:33.043Z,19.97
2022-09-20T15:10:01.445Z,19.59
2022-09-20T15:12:29.753Z,19.69
2022-09-20T15:14:59.088Z,18.90
2022-09-20T15:17:27.438Z,18.63
2022-09-20T15:19:55.751Z,18.85
2022-09-20T15:22:24.106Z,18.97
2022-09-20T15:24:52.498Z,19.05
2022-09-20T15:27:23.959Z,19.13
2022-09-20T15:29:54.736Z,19.13
2022-09-20T15:32:23.012Z,19.45
2022-09-20T15:34:51.300Z,19.42
2022-09-20T15:37:19.668Z,18.11
2022-09-20T15:39:47.996Z,18.97
2022-09-20T15:42:16.665Z,19.35
2022-09-20T15:44:45.077Z,19.09
2022-09-20T15:47:16.075Z,18.78
2022-09-20T15:49:46.631Z,18.49
2022-09-20T15:52:15.384Z,19.60
2022-09-20T15:54:43.729Z,19.10
2022-09-20T15:57:12.024Z,19.23
2022-09-20T15:59:40.537Z,18.58
2022-09-20T16:02:09.750Z,18.81
2022-09-20T16:04:38.096Z,19.27
2022-09-20T16:07:07.028Z,19.55
2022-09-20T16:09:36.059Z,19.44
2022-09-20T16:12:04.705Z,19.78
2022-09-20T16:14:33.186Z,19.83
2022-09-20T16:17:02.554Z,19.96
2022-09-20T16:19:30.954Z,19.71
2022-09-20T16:21:59.561Z,19.89
2022-09-20T16:24:32.110Z,20.02
2022-09-20T16:27:01.507Z,19.73
2022-09-20T16:29:30.539Z,19.04
2022-09-20T16:31:59.587Z,19.49
2022-09-20T16:34:32.033Z,19.45
2022-09-20T16:37:03.200Z,19.88
2022-09-20T16:39:31.671Z,19.92
2022-09-20T16:42:04.770Z,19.82
2022-09-20T16:44:33.920Z,19.03
2022-09-20T16:47:03.064Z,19.21
2022-09-20T16:49:31.382Z,19.79
2022-09-20T16:51:59.707Z,19.72
2022-09-20T16:54:31.731Z,19.63
2022-09-20T16:57:01.029Z,19.81
2022-09-20T16:59:29.386Z,19.81
2022-09-20T17:01:57.699Z,19.85
2022-09-20T17:04:26.112Z,19.75
2022-09-20T17:06:55.638Z,19.72
2022-09-20T17:09:23.932Z,19.73
2022-09-20T17:11:53.631Z,19.61
2022-09-20T17:14:22.070Z,19.58
2022-09-20T17:16:50.579Z,19.51
2022-09-20T17:19:20.165Z,19.43
2022-09-20T17:21:50.532Z,19.45
2022-09-20T17:24:23.390Z,19.45
2022-09-20T17:26:53.606Z,19.65
2022-09-20T17:29:23.276Z,19.76
2022-09-20T17:31:55.925Z,19.67
2022-09-20T17:34:28.067Z,19.65
2022-09-20T17:36:57.574Z,19.58
2022-09-20T17:39:25.911Z,19.58
2022-09-20T17:41:54.410Z,19.61
2022-09-20T17:44:22.763Z,19.64
2022-09-20T17:46:53.871Z,19.50
2022-09-20T17:49:23.376Z,19.32
2022-09-20T17:51:54.199Z,19.21
2022-09-20T17:54:24.100Z,19.12
2022-09-20T17:56:55.705Z,19.06
2022-09-20T17:59:24.644Z,18.94
2022-09-20T18:01:54.359Z,18.91
2022-09-20T18:04:25.110Z,18.87
2022-09-20T18:06:54.139Z,18.83
2022-09-20T18:09:25.681Z,18.82
2022-09-20T18:14:26.625Z,18.61
2022-09-20T18:16:57.763Z,18.50
2022-09-20T18:19:32.391Z,18.44
2022-09-20T18:22:01.772Z,18.48
2022-09-20T18:24:30.880Z,18.52
2022-09-20T18:27:01.744Z,18.58
2022-09-20T18:29:33.360Z,18.58
2022-09-20T18:32:02.307Z,18.37
2022-09-20T18:34:33.324Z,18.31
2022-09-20T18:37:03.755Z,18.23
2022-09-20T18:39:33.282Z,18.21
2022-09-20T18:42:02.567Z,18.19
2022-09-20T18:44:33.518Z,18.14
2022-09-20T18:47:03.378Z,18.13
2022-09-20T18:49:32.047Z,18.06
2022-09-20T18:52:01.706Z,17.96
2022-09-20T18:54:33.151Z,17.64
2022-09-20T18:57:01.639Z,17.46
2022-09-20T18:59:30.268Z,17.21
2022-09-20T19:02:09.519Z,17.22
2022-09-20T19:04:53.214Z,17.27
2022-09-20T19:07:27.715Z,17.36
2022-09-20T19:10:09.791Z,17.51
2022-09-20T19:12:39.397Z,17.58
2022-09-20T19:15:10.878Z,17.61
2022-09-20T19:17:48.276Z,17.56
2022-09-20T19:20:19.662Z,17.53
2022-09-20T19:23:01.676Z,17.66
2022-09-20T19:25:40.784Z,17.61
2022-09-20T19:28:10.671Z,17.47
2022-09-20T19:30:40.495Z,17.37
2022-09-20T19:33:14.701Z,17.41
2022-09-20T19:35:49.508Z,17.45
2022-09-20T19:38:35.246Z,17.35
2022-09-20T19:41:04.716Z,17.27
2022-09-20T19:43:44.516Z,17.19
2022-09-20T19:46:20.318Z,17.20
2022-09-20T19:48:56.410Z,17.15
2022-09-20T19:51:26.018Z,17.10
2022-09-20T19:53:55.313Z,17.00
2022-09-20T19:56:27.666Z,16.98
2022-09-20T19:58:56.277Z,16.99
2022-09-20T20:01:25.402Z,17.01
2022-09-20T20:03:54.247Z,16.98
2022-09-20T20:06:34.757Z,17.00
2022-09-20T20:09:14.352Z,17.00
2022-09-20T20:11:57.731Z,17.00
2022-09-20T20:14:32.873Z,17.01
2022-09-20T20:17:19.879Z,17.00
2022-09-20T20:20:05.403Z,16.97
2022-09-20T20:22:33.680Z,16.94
2022-09-20T20:25:02.081Z,16.97
2022-09-20T20:27:32.439Z,16.96
2022-09-20T20:30:00.729Z,16.98
2022-09-20T20:32:29.005Z,16.94
2022-09-20T20:34:57.280Z,16.89
2022-09-20T20:37:28.055Z,16.94
2022-09-20T20:39:56.366Z,16.98
2022-09-20T20:42:24.853Z,17.11
2022-09-20T20:44:53.239Z,17.24
2022-09-20T20:47:21.889Z,17.37
2022-09-20T20:49:53.375Z,17.34
2022-09-20T20:52:21.756Z,17.46
2022-09-20T20:54:50.107Z,17.61
2022-09-20T20:57:18.925Z,17.71
2022-09-20T20:59:47.279Z,17.78
2022-09-20T21:02:15.734Z,17.74
2022-09-20T21:04:44.196Z,17.70
2022-09-20T21:07:12.536Z,17.69
2022-09-20T21:09:40.888Z,17.62
2022-09-20T21:12:09.406Z,17.64
2022-09-20T21:14:38.666Z,17.66
2022-09-20T21:17:07.705Z,17.71
2022-09-20T21:19:36.150Z,17.79
2022-09-20T21:22:04.457Z,17.79
2022-09-20T21:24:32.829Z,17.74
2022-09-20T21:27:01.972Z,17.75
2022-09-20T21:29:30.396Z,17.82
2022-09-20T21:31:58.742Z,17.79
2022-09-20T21:34:27.058Z,17.72
2022-09-20T21:36:55.452Z,17.65
2022-09-20T21:39:23.936Z,17.55
2022-09-20T21:41:52.349Z,17.54
2022-09-20T21:44:20.634Z,17.45
2022-09-20T21:46:49.939Z,17.41
2022-09-20T21:49:18.211Z,17.52
2022-09-20T21:51:46.584Z,17.50
2022-09-20T21:54:15.082Z,17.41
2022-09-20T21:56:43.760Z,17.42
2022-09-20T21:59:12.025Z,17.20
2022-09-20T22:01:40.955Z,16.96
2022-09-20T22:04:10.637Z,16.88
2022-09-20T22:06:40.379Z,16.90
2022-09-20T22:09:10.708Z,17.10
2022-09-20T22:11:41.541Z,17.29
2022-09-20T22:14:12.109Z,17.42
2022-09-20T22:16:41.768Z,17.35
2022-09-20T22:19:13.243Z,17.43
2022-09-20T22:21:43.198Z,17.40
2022-09-20T22:24:12.325Z,17.13
2022-09-20T22:26:42.650Z,17.12
2022-09-20T22:29:11.540Z,17.21
2022-09-20T22:31:46.985Z,17.27
2022-09-20T22:34:19.843Z,17.29
2022-09-20T22:36:48.756Z,17.25
2022-09-20T22:39:17.275Z,17.21
2022-09-20T22:41:47.729Z,17.14
2022-09-20T22:44:16.337Z,17.01
2022-09-20T22:46:44.774Z,16.78
2022-09-20T22:49:13.300Z,16.80
2022-09-20T22:51:41.727Z,16.72
2022-09-20T22:54:10.989Z,16.73
2022-09-20T22:56:41.272Z,16.83
2022-09-20T22:59:11.274Z,16.89
2022-09-20T23:01:46.512Z,17.01
2022-09-20T23:04:19.934Z,17.01
2022-09-20T23:06:51.794Z,17.00
2022-09-20T23:09:21.330Z,16.98
2022-09-20T23:11:50.359Z,17.02
2022-09-20T23:14:20.082Z,17.16
2022-09-20T23:16:48.595Z,17.21
2022-09-20T23:19:17.029Z,17.23
2022-09-20T23:21:45.525Z,17.18
2022-09-20T23:24:14.832Z,17.17
2022-09-20T23:26:43.757Z,17.15
2022-09-20T23:29:13.672Z,17.10
2022-09-20T23:31:46.645Z,17.00
2022-09-20T23:34:15.946Z,16.92
2022-09-20T23:36:45.061Z,16.93
2022-09-20T23:39:13.948Z,17.01
2022-09-20T23:41:45.775Z,16.96
2022-09-20T23:44:16.902Z,16.97
2022-09-20T23:46:45.402Z,16.99
2022-09-20T23:49:13.787Z,16.97
2022-09-20T23:51:42.175Z,16.86
2022-09-20T23:54:10.707Z,16.78
2022-09-20T23:56:40.181Z,16.80
2022-09-20T23:59:08.866Z,16.83
